Time;durP1;ratioP1;P1;durP2;ratioP2;P2;SDS_P1;SDS_P2;PMS_P1;PMS_P2;Temp;Humidity;BMP_temperature;BMP_pressure;BME280_temperature;BME280_humidity;BME280_pressure;Samples;Min_cycle;Max_cycle;Signal;HPM_P1;HPM_P2
2023/05/11 00:01:08;;;;;;;29.50;18.10;;;11.70;99.90;;;;;;4983232;28;20117;-82
2023/05/11 00:03:37;;;;;;;33.08;18.75;;;11.70;99.90;;;;;;4995852;28;20038;-82
2023/05/11 00:06:03;;;;;;;30.08;18.88;;;11.70;99.90;;;;;;5026881;28;20045;-82
2023/05/11 00:08:29;;;;;;;37.42;19.85;;;11.70;99.90;;;;;;5006763;28;20099;-82
2023/05/11 00:10:55;;;;;;;30.63;18.98;;;11.70;99.90;;;;;;5011607;28;20054;-81
2023/05/11 00:13:20;;;;;;;29.38;17.88;;;11.70;99.90;;;;;;5007347;28;20053;-81
2023/05/11 00:15:46;;;;;;;32.47;19.55;;;11.70;99.90;;;;;;5021493;28;20408;-81
2023/05/11 00:18:12;;;;;;;29.33;18.50;;;11.70;99.90;;;;;;5021678;28;20033;-81
2023/05/11 00:20:37;;;;;;;35.35;19.13;;;11.70;99.90;;;;;;5013431;28;20653;-81
2023/05/11 00:23:03;;;;;;;34.85;20.00;;;11.70;99.90;;;;;;5006212;28;20049;-81
2023/05/11 00:25:29;;;;;;;30.20;18.20;;;11.70;99.90;;;;;;4995208;28;20435;-81
2023/05/11 00:27:55;;;;;;;35.00;20.70;;;11.70;99.90;;;;;;5013726;28;20094;-81
2023/05/11 00:30:20;;;;;;;28.08;17.77;;;11.70;99.90;;;;;;4976081;28;20049;-81
2023/05/11 00:32:47;;;;;;;28.10;18.00;;;11.70;99.90;;;;;;5016783;28;20077;-81
2023/05/11 00:35:13;;;;;;;29.85;17.73;;;11.70;99.90;;;;;;5008495;28;20037;-81
2023/05/11 00:37:39;;;;;;;26.05;16.70;;;11.70;99.90;;;;;;4981479;28;20044;-81
2023/05/11 00:40:06;;;;;;;25.80;17.23;;;11.70;99.90;;;;;;5024874;28;20037;-82
2023/05/11 00:42:32;;;;;;;26.75;17.35;;;11.70;99.90;;;;;;5003151;28;20084;-82
2023/05/11 00:44:58;;;;;;;25.45;15.68;;;11.70;99.90;;;;;;4989116;28;20049;-81
2023/05/11 00:47:24;;;;;;;25.38;16.10;;;11.70;99.90;;;;;;5014647;28;20061;-82
2023/05/11 00:49:52;;;;;;;22.83;14.90;;;11.70;99.90;;;;;;5006213;28;20492;-84
2023/05/11 00:52:21;;;;;;;23.17;15.70;;;11.70;99.90;;;;;;5016069;28;20127;-82
2023/05/11 00:54:47;;;;;;;22.52;14.65;;;11.70;99.90;;;;;;4994112;28;20045;-82
2023/05/11 00:57:18;;;;;;;27.67;16.33;;;11.60;99.90;;;;;;4998104;28;20037;-83
2023/05/11 00:59:44;;;;;;;21.65;15.05;;;11.60;99.90;;;;;;5014714;28;20041;-82
2023/05/11 01:02:10;;;;;;;26.10;17.20;;;11.60;99.90;;;;;;5011451;28;20484;-83
2023/05/11 01:04:36;;;;;;;24.98;15.98;;;11.60;99.90;;;;;;4976754;28;20038;-82
2023/05/11 01:07:26;;;;;;;27.15;17.08;;;11.60;99.90;;;;;;5014956;28;20045;-82
2023/05/11 01:10:09;;;;;;;24.65;16.90;;;11.50;99.90;;;;;;4992701;28;20125;-81
2023/05/11 01:12:42;;;;;;;31.15;17.52;;;11.60;99.90;;;;;;5020435;28;20129;-83
2023/05/11 01:15:20;;;;;;;28.88;17.23;;;11.50;99.90;;;;;;5031626;28;20041;-81
2023/05/11 01:18:01;;;;;;;32.42;18.67;;;11.50;99.90;;;;;;5022684;28;20055;-82
2023/05/11 01:20:29;;;;;;;34.10;19.77;;;11.50;99.90;;;;;;5028869;28;20370;-82
2023/05/11 01:23:07;;;;;;;32.17;19.77;;;11.50;99.90;;;;;;5005259;28;20037;-81
2023/05/11 01:26:07;;;;;;;32.67;19.33;;;11.50;99.90;;;;;;5009443;28;20055;-81
2023/05/11 01:28:57;;;;;;;36.63;20.55;;;11.50;99.90;;;;;;5011453;28;20082;-82
2023/05/11 01:31:27;;;;;;;33.45;20.83;;;11.50;99.90;;;;;;5015465;28;20442;-82
2023/05/11 01:34:00;;;;;;;32.17;20.05;;;11.50;99.90;;;;;;4996228;28;20038;-84
2023/05/11 01:36:32;;;;;;;37.47;21.60;;;11.50;99.90;;;;;;5002351;28;20485;-82
2023/05/11 01:39:02;;;;;;;39.17;20.80;;;11.40;99.90;;;;;;5005930;28;20148;-82
2023/05/11 01:41:30;;;;;;;41.75;21.80;;;11.50;99.90;;;;;;5014028;28;20401;-81
2023/05/11 01:43:59;;;;;;;34.20;20.98;;;11.40;99.90;;;;;;5016875;28;20103;-82
2023/05/11 01:46:29;;;;;;;36.63;21.50;;;11.40;99.90;;;;;;5013750;28;20041;-82
2023/05/11 01:48:56;;;;;;;41.15;22.20;;;11.40;99.90;;;;;;5008927;28;20722;-82
2023/05/11 01:51:29;;;;;;;39.03;22.65;;;11.40;99.90;;;;;;4990113;28;20029;-81
2023/05/11 01:53:58;;;;;;;39.47;21.90;;;11.40;99.90;;;;;;5010688;28;20105;-81
2023/05/11 01:56:25;;;;;;;44.80;22.98;;;11.40;99.90;;;;;;5013551;28;20116;-81
2023/05/11 01:58:54;;;;;;;40.83;22.70;;;11.50;99.90;;;;;;5015511;28;20087;-81
2023/05/11 02:01:21;;;;;;;37.75;22.10;;;11.40;99.90;;;;;;4983412;28;20129;-81
2023/05/11 02:03:48;;;;;;;38.50;21.02;;;11.40;99.90;;;;;;5011858;28;20133;-81
2023/05/11 02:06:17;;;;;;;42.00;22.80;;;11.40;99.90;;;;;;5022385;28;20041;-81
2023/05/11 02:08:45;;;;;;;48.17;23.27;;;11.50;99.90;;;;;;5010633;28;20136;-81
2023/05/11 02:11:12;;;;;;;55.00;26.85;;;11.50;99.90;;;;;;5020778;28;20440;-83
2023/05/11 02:13:40;;;;;;;61.05;29.75;;;11.50;99.90;;;;;;5008804;28;20149;-82
2023/05/11 02:16:07;;;;;;;75.13;31.83;;;11.50;99.90;;;;;;5004620;28;20770;-81
2023/05/11 02:18:34;;;;;;;68.60;31.23;;;11.40;99.90;;;;;;4993634;28;20037;-81
2023/05/11 02:21:01;;;;;;;80.85;33.20;;;11.30;99.90;;;;;;4995598;28;20049;-82
2023/05/11 02:23:30;;;;;;;65.53;30.30;;;11.30;99.90;;;;;;4969406;28;20484;-81
2023/05/11 02:25:56;;;;;;;71.43;30.52;;;11.30;99.90;;;;;;5011394;28;20040;-82
2023/05/11 02:28:22;;;;;;;84.10;34.78;;;11.30;99.90;;;;;;4995022;28;20056;-82
2023/05/11 02:30:51;;;;;;;72.82;32.20;;;11.30;99.90;;;;;;4996638;28;20042;-83
2023/05/11 02:33:24;;;;;;;60.28;28.90;;;11.30;99.90;;;;;;5015288;28;20050;-82
2023/05/11 02:35:53;;;;;;;66.70;30.55;;;11.30;99.90;;;;;;5012810;28;20048;-81
2023/05/11 02:38:28;;;;;;;73.25;32.35;;;11.30;99.90;;;;;;5001381;28;20052;-81
2023/05/11 02:40:57;;;;;;;64.07;29.30;;;11.30;99.90;;;;;;5012062;28;20045;-82
2023/05/11 02:43:25;;;;;;;78.35;32.08;;;11.30;99.90;;;;;;4993535;28;20063;-81
2023/05/11 02:45:58;;;;;;;75.03;31.15;;;11.30;99.90;;;;;;4989499;28;20049;-81
2023/05/11 02:48:27;;;;;;;89.13;34.47;;;11.30;99.90;;;;;;4990585;28;20050;-82
2023/05/11 02:50:55;;;;;;;166.70;44.13;;;11.30;99.90;;;;;;5011944;28;20046;-81
2023/05/11 02:53:26;;;;;;;105.20;36.13;;;11.30;99.90;;;;;;4990229;28;20097;-82
2023/05/11 02:55:53;;;;;;;89.13;34.92;;;11.20;99.90;;;;;;5007758;28;20063;-81
2023/05/11 02:58:20;;;;;;;99.38;37.00;;;11.20;99.90;;;;;;4973099;28;20034;-82
2023/05/11 03:00:45;;;;;;;109.82;38.70;;;11.20;99.90;;;;;;4995975;28;20571;-82
2023/05/11 03:03:11;;;;;;;118.97;39.83;;;11.20;99.90;;;;;;4997045;28;20069;-84
2023/05/11 03:05:37;;;;;;;136.02;39.63;;;11.20;99.90;;;;;;5014542;28;20071;-82
2023/05/11 03:08:03;;;;;;;170.87;44.37;;;11.20;99.90;;;;;;4991519;28;20080;-82
2023/05/11 03:10:29;;;;;;;165.77;44.37;;;11.20;99.90;;;;;;5013840;28;20046;-82
2023/05/11 03:12:55;;;;;;;139.93;41.97;;;11.20;99.90;;;;;;4971392;28;20176;-82
2023/05/11 03:15:21;;;;;;;126.55;41.55;;;11.20;99.90;;;;;;5010672;28;20131;-82
2023/05/11 03:17:49;;;;;;;119.32;41.17;;;11.20;99.90;;;;;;4989559;28;20033;-81
2023/05/11 03:20:16;;;;;;;136.80;43.45;;;11.20;99.90;;;;;;5011750;28;20103;-81
2023/05/11 03:22:42;;;;;;;124.22;39.35;;;11.20;99.90;;;;;;5006741;28;20053;-81
2023/05/11 03:25:09;;;;;;;133.80;42.40;;;11.20;99.90;;;;;;4994518;28;20052;-86
2023/05/11 03:27:36;;;;;;;108.13;39.08;;;11.20;99.90;;;;;;5008855;28;20042;-82
2023/05/11 03:30:08;;;;;;;147.90;46.67;;;11.20;99.90;;;;;;5010512;28;20041;-83
2023/05/11 03:32:35;;;;;;;126.30;42.63;;;11.20;99.90;;;;;;4994697;28;20037;-83
2023/05/11 03:35:01;;;;;;;130.13;42.63;;;11.20;99.90;;;;;;5000629;28;20044;-82
2023/05/11 03:37:30;;;;;;;178.73;46.72;;;11.20;99.90;;;;;;5018939;28;20374;-82
2023/05/11 03:39:58;;;;;;;119.28;40.97;;;11.20;99.90;;;;;;4988849;28;20041;-83
2023/05/11 03:42:29;;;;;;;112.65;40.53;;;11.20;99.90;;;;;;5020349;28;20446;-81
2023/05/11 03:44:58;;;;;;;123.07;39.97;;;11.20;99.90;;;;;;5006798;28;20049;-82
2023/05/11 03:47:27;;;;;;;96.40;39.00;;;11.20;99.90;;;;;;5009447;28;20124;-81
2023/05/11 03:49:55;;;;;;;104.72;38.83;;;11.20;99.90;;;;;;5015715;28;20045;-81
2023/05/11 03:52:23;;;;;;;188.45;45.78;;;11.20;99.90;;;;;;5007055;28;20116;-82
2023/05/11 03:54:49;;;;;;;106.53;38.53;;;11.20;99.90;;;;;;4996995;28;20037;-81
2023/05/11 03:57:15;;;;;;;93.47;36.40;;;11.20;99.90;;;;;;5020234;28;20034;-81
2023/05/11 03:59:41;;;;;;;114.97;40.28;;;11.30;99.90;;;;;;5017908;28;20060;-82
2023/05/11 04:02:07;;;;;;;105.03;37.70;;;11.30;99.90;;;;;;5001448;28;20048;-82
2023/05/11 04:04:33;;;;;;;83.88;33.95;;;11.20;99.90;;;;;;5012404;28;20152;-81
2023/05/11 04:06:59;;;;;;;71.10;27.35;;;11.30;99.90;;;;;;4990565;28;20553;-81
2023/05/11 04:09:25;;;;;;;49.72;25.08;;;11.20;99.90;;;;;;5021956;28;20037;-81
2023/05/11 04:11:50;;;;;;;43.03;21.25;;;11.20;99.90;;;;;;4992870;28;20041;-82
2023/05/11 04:14:16;;;;;;;44.45;22.00;;;11.20;99.90;;;;;;4981025;28;20037;-82
2023/05/11 04:16:43;;;;;;;45.42;22.25;;;11.20;99.90;;;;;;4998964;28;20033;-82
2023/05/11 04:19:09;;;;;;;50.63;22.95;;;11.20;99.90;;;;;;5016839;28;20044;-82
2023/05/11 04:21:35;;;;;;;55.88;23.92;;;11.20;99.90;;;;;;5002863;28;20388;-83
2023/05/11 04:24:01;;;;;;;39.58;20.23;;;11.20;99.90;;;;;;5002949;28;20460;-81
2023/05/11 04:26:27;;;;;;;37.88;19.30;;;11.10;99.90;;;;;;5009668;28;20044;-82
2023/05/11 04:28:52;;;;;;;45.65;20.95;;;11.10;99.90;;;;;;5011824;28;20391;-81
2023/05/11 04:31:18;;;;;;;51.17;22.43;;;11.10;99.90;;;;;;4985755;28;20042;-84
2023/05/11 04:33:44;;;;;;;45.63;21.48;;;11.10;99.90;;;;;;5014133;28;20038;-81
2023/05/11 04:36:10;;;;;;;40.65;20.73;;;11.10;99.90;;;;;;4996863;28;20125;-82
2023/05/11 04:38:36;;;;;;;41.33;19.67;;;11.10;99.90;;;;;;4973315;28;20042;-80
2023/05/11 04:41:05;;;;;;;40.73;18.90;;;11.10;99.90;;;;;;5013859;28;20091;-83
2023/05/11 04:43:31;;;;;;;39.10;18.85;;;11.10;99.90;;;;;;5007818;28;20047;-80
2023/05/11 04:45:59;;;;;;;37.47;19.33;;;11.10;99.90;;;;;;5017156;28;20120;-80
2023/05/11 04:48:25;;;;;;;45.88;20.17;;;11.20;99.90;;;;;;4995329;28;20128;-81
2023/05/11 04:50:53;;;;;;;43.00;19.65;;;11.20;99.90;;;;;;5014454;28;20041;-80
2023/05/11 04:53:19;;;;;;;41.53;20.05;;;11.10;99.90;;;;;;5000080;28;20492;-80
2023/05/11 04:55:44;;;;;;;46.42;21.17;;;11.20;99.90;;;;;;5006960;28;20076;-80
2023/05/11 04:58:10;;;;;;;46.53;19.45;;;11.20;99.90;;;;;;4987788;28;20042;-81
2023/05/11 05:00:36;;;;;;;33.55;17.73;;;11.20;99.90;;;;;;5017939;28;20167;-80
2023/05/11 05:03:02;;;;;;;37.95;18.20;;;11.20;99.90;;;;;;5012657;28;20120;-80
2023/05/11 05:05:28;;;;;;;32.97;16.80;;;11.30;99.90;;;;;;4994083;28;20132;-81
2023/05/11 05:07:54;;;;;;;31.55;17.00;;;11.30;99.90;;;;;;5012792;28;20449;-81
2023/05/11 05:10:20;;;;;;;30.67;17.02;;;11.30;99.90;;;;;;4983464;28;20034;-81
2023/05/11 05:12:46;;;;;;;30.92;15.57;;;11.40;99.90;;;;;;5005450;28;20395;-80
2023/05/11 05:15:12;;;;;;;30.27;16.40;;;11.40;99.90;;;;;;4989630;28;20049;-81
2023/05/11 05:17:38;;;;;;;36.53;17.02;;;11.40;99.90;;;;;;4997546;28;20029;-81
2023/05/11 05:20:05;;;;;;;36.90;17.33;;;11.40;99.90;;;;;;5013168;28;20045;-81
2023/05/11 05:22:31;;;;;;;36.80;17.63;;;11.50;99.90;;;;;;5020428;28;20090;-82
2023/05/11 05:24:57;;;;;;;35.15;16.75;;;11.40;99.90;;;;;;4989141;28;20132;-81
2023/05/11 05:27:22;;;;;;;31.55;16.52;;;11.40;99.90;;;;;;4984733;28;20483;-82
2023/05/11 05:29:48;;;;;;;35.90;17.65;;;11.40;99.90;;;;;;4969688;28;20081;-80
2023/05/11 05:32:14;;;;;;;30.40;16.90;;;11.50;99.90;;;;;;5008624;28;20393;-80
2023/05/11 05:34:40;;;;;;;109.88;57.10;;;11.50;99.90;;;;;;4974823;28;20113;-80
2023/05/11 05:37:05;;;;;;;30.40;16.75;;;11.50;99.90;;;;;;4986399;28;20085;-80
2023/05/11 05:39:31;;;;;;;27.75;15.48;;;11.50;99.90;;;;;;4996269;28;20042;-80
2023/05/11 05:41:57;;;;;;;34.28;17.58;;;11.60;99.90;;;;;;4990469;28;20084;-81
2023/05/11 05:44:22;;;;;;;31.27;17.08;;;11.60;99.90;;;;;;4988429;28;20032;-80
2023/05/11 05:46:48;;;;;;;28.60;16.77;;;11.60;99.90;;;;;;5000822;28;20052;-81
2023/05/11 05:49:14;;;;;;;31.15;16.38;;;11.70;99.90;;;;;;5002957;28;20037;-81
2023/05/11 05:51:40;;;;;;;25.90;15.57;;;11.70;99.90;;;;;;4992370;28;20046;-80
2023/05/11 05:54:05;;;;;;;30.63;17.85;;;11.70;99.90;;;;;;4987447;28;20125;-81
2023/05/11 05:56:33;;;;;;;31.05;17.88;;;11.70;99.90;;;;;;4996113;28;20042;-80
2023/05/11 05:59:00;;;;;;;34.03;17.98;;;11.70;99.90;;;;;;4991173;28;20100;-80
2023/05/11 06:01:26;;;;;;;44.15;19.73;;;11.70;99.90;;;;;;4970945;28;20068;-82
2023/05/11 06:03:52;;;;;;;45.95;19.85;;;11.70;99.90;;;;;;5005507;28;20046;-81
2023/05/11 06:06:18;;;;;;;36.05;18.42;;;11.70;99.90;;;;;;5005440;28;20045;-81
2023/05/11 06:08:44;;;;;;;40.20;20.00;;;11.70;99.90;;;;;;5009004;28;20045;-80
2023/05/11 06:11:09;;;;;;;35.53;17.92;;;11.70;99.90;;;;;;4996581;28;20099;-81
2023/05/11 06:13:35;;;;;;;33.13;17.65;;;11.70;99.90;;;;;;4996358;28;20099;-81
2023/05/11 06:16:01;;;;;;;35.53;17.83;;;11.70;99.90;;;;;;5012396;28;20029;-81
2023/05/11 06:18:27;;;;;;;36.83;20.10;;;11.80;99.90;;;;;;4988382;28;20046;-81
2023/05/11 06:20:53;;;;;;;36.63;19.73;;;11.70;99.90;;;;;;4994395;28;20095;-81
2023/05/11 06:23:19;;;;;;;39.45;20.05;;;11.70;99.90;;;;;;4993661;28;20095;-81
2023/05/11 06:25:44;;;;;;;38.70;20.08;;;11.80;99.90;;;;;;5002542;28;20037;-81
2023/05/11 06:28:10;;;;;;;50.83;22.05;;;11.80;99.90;;;;;;5011165;28;20080;-81
2023/05/11 06:30:36;;;;;;;41.85;20.90;;;11.80;99.90;;;;;;5014593;28;20128;-82
2023/05/11 06:33:02;;;;;;;53.05;22.10;;;11.80;99.90;;;;;;5013698;28;20465;-82
2023/05/11 06:35:29;;;;;;;45.22;19.55;;;11.80;99.90;;;;;;5016262;28;20099;-82
2023/05/11 06:37:55;;;;;;;39.10;21.05;;;11.80;99.90;;;;;;4992060;28;20803;-81
2023/05/11 06:40:21;;;;;;;41.65;21.73;;;11.70;99.90;;;;;;5011058;28;20056;-81
2023/05/11 06:42:46;;;;;;;42.83;21.75;;;11.80;99.90;;;;;;4994275;28;20513;-82
2023/05/11 06:45:12;;;;;;;44.65;21.38;;;11.80;99.90;;;;;;4992688;28;20045;-80
2023/05/11 06:47:38;;;;;;;47.03;21.88;;;11.80;99.90;;;;;;5032790;28;20478;-85
2023/05/11 06:50:04;;;;;;;42.97;21.40;;;11.80;99.90;;;;;;4992338;28;20054;-81
2023/05/11 06:52:30;;;;;;;72.65;27.10;;;11.80;99.90;;;;;;4979489;28;20050;-82
2023/05/11 06:54:56;;;;;;;48.90;23.10;;;11.80;99.90;;;;;;5033355;28;20179;-80
2023/05/11 06:57:22;;;;;;;58.90;24.55;;;11.80;99.90;;;;;;4994260;28;20034;-81
2023/05/11 06:59:48;;;;;;;56.35;24.80;;;11.80;99.90;;;;;;5017000;28;20048;-84
2023/05/11 07:02:13;;;;;;;54.53;23.85;;;11.80;99.90;;;;;;4989512;28;20049;-81
2023/05/11 07:04:39;;;;;;;62.70;24.73;;;11.70;99.90;;;;;;5003038;28;20045;-81
2023/05/11 07:07:04;;;;;;;68.57;24.92;;;11.70;99.90;;;;;;5030417;28;20092;-83
2023/05/11 07:09:33;;;;;;;68.22;25.10;;;11.70;99.90;;;;;;5017246;28;20048;-82
2023/05/11 07:11:59;;;;;;;89.13;28.55;;;11.70;99.90;;;;;;5019899;28;20404;-86
2023/05/11 07:14:25;;;;;;;85.10;29.80;;;11.70;99.90;;;;;;4989182;28;20053;-83
2023/05/11 07:16:53;;;;;;;63.40;26.40;;;11.80;99.90;;;;;;5005117;28;20081;-83
2023/05/11 07:19:20;;;;;;;37.60;19.80;;;11.70;99.90;;;;;;4989471;28;20040;-83
2023/05/11 07:21:48;;;;;;;41.67;21.15;;;11.80;99.90;;;;;;5020867;28;20049;-83
2023/05/11 07:24:13;;;;;;;68.68;27.38;;;11.80;99.90;;;;;;5037440;28;20052;-83
2023/05/11 07:26:39;;;;;;;59.33;24.70;;;11.80;99.90;;;;;;5021884;28;20428;-83
2023/05/11 07:29:35;;;;;;;46.13;23.40;;;11.80;99.90;;;;;;5037712;28;20381;-83
2023/05/11 07:32:10;;;;;;;43.67;21.60;;;11.80;99.90;;;;;;5000997;28;20046;-84
2023/05/11 07:34:48;;;;;;;57.72;24.70;;;11.80;99.90;;;;;;5033598;28;20041;-84
2023/05/11 07:37:34;;;;;;;50.92;23.42;;;11.90;99.90;;;;;;5016962;28;20180;-83
2023/05/11 07:40:43;;;;;;;42.90;21.67;;;11.90;99.90;;;;;;5018750;28;20138;-83
2023/05/11 07:43:55;;;;;;;48.85;23.33;;;12.00;99.90;;;;;;4997839;28;20045;-83
2023/05/11 07:46:52;;;;;;;46.47;22.73;;;12.00;99.90;;;;;;4995399;28;20129;-82
2023/05/11 07:49:59;;;;;;;42.60;20.50;;;12.00;99.90;;;;;;4955633;28;20043;-82
2023/05/11 07:52:27;;;;;;;47.35;22.92;;;12.10;99.90;;;;;;4934282;29;20052;-85
2023/05/11 07:55:35;;;;;;;40.37;20.83;;;12.10;99.90;;;;;;4903265;29;20106;-82
2023/05/11 07:58:49;;;;;;;44.08;22.58;;;12.10;99.90;;;;;;4909587;29;20091;-82
2023/05/11 08:09:23;;;;;;;53.78;24.05;;;12.40;99.90;;;;;;4879298;29;20573;-83
2023/05/11 08:12:52;;;;;;;46.08;23.02;;;12.40;99.90;;;;;;4862938;29;20065;-82
2023/05/11 08:15:42;;;;;;;39.00;21.90;;;12.40;99.90;;;;;;4899152;29;20056;-82
2023/05/11 08:18:36;;;;;;;42.33;22.67;;;12.50;99.90;;;;;;4880761;29;20044;-82
2023/05/11 08:21:45;;;;;;;;;;;;;;;;;;;;;
2023/05/11 08:32:41;;;;;;;38.30;21.17;;;12.60;99.90;;;;;;4777347;29;20163;-83
2023/05/11 08:39:50;;;;;;;;;;;;;;;;;;;;;
2023/05/11 08:46:48;;;;;;;40.67;22.20;;;12.70;99.90;;;;;;4808012;29;20045;-83
2023/05/11 08:53:38;;;;;;;21.67;11.88;;;12.70;99.90;;;;;;4839519;29;20094;-83
2023/05/11 09:18:25;;;;;;;25.40;14.55;;;12.40;99.90;;;;;;4996112;28;20050;-70
2023/05/11 09:20:51;;;;;;;29.75;15.77;;;12.50;99.90;;;;;;4955750;28;20085;-70
2023/05/11 09:23:18;;;;;;;21.67;13.02;;;12.50;99.90;;;;;;4971793;28;20054;-70
2023/05/11 09:25:43;;;;;;;33.00;16.95;;;12.50;99.90;;;;;;4966285;28;20042;-70
2023/05/11 09:28:15;;;;;;;35.92;18.17;;;12.50;99.90;;;;;;4945549;28;20054;-70
2023/05/11 09:30:41;;;;;;;;;;;12.60;99.90;;;;;;4981304;28;20080;-70
2023/05/11 09:33:07;;;;;;;34.78;18.50;;;12.40;99.90;;;;;;4964936;28;19957;-71
2023/05/11 09:35:34;;;;;;;31.17;17.98;;;12.50;99.90;;;;;;4949882;28;20047;-70
2023/05/11 09:38:13;;;;;;;36.90;19.88;;;12.50;99.90;;;;;;4969382;28;20046;-70
2023/05/11 09:40:49;;;;;;;40.50;20.30;;;12.50;99.90;;;;;;4954360;28;20046;-71
2023/05/11 09:43:35;;;;;;;37.97;21.13;;;12.50;99.90;;;;;;4955034;28;20050;-70
2023/05/11 09:46:05;;;;;;;40.33;21.38;;;12.50;99.90;;;;;;4963672;28;20105;-70
2023/05/11 09:48:32;;;;;;;37.10;19.88;;;12.50;99.90;;;;;;4941160;28;20061;-70
2023/05/11 09:51:06;;;;;;;43.38;22.95;;;12.60;99.90;;;;;;4955804;28;20046;-70
2023/05/11 09:53:42;;;;;;;40.38;21.63;;;12.70;99.90;;;;;;4954508;28;20050;-71
2023/05/11 09:56:08;;;;;;;40.08;22.13;;;12.80;99.90;;;;;;4972378;28;20496;-71
2023/05/11 09:58:46;;;;;;;36.38;20.65;;;13.00;99.90;;;;;;4971054;28;20881;-71
2023/05/11 10:01:13;;;;;;;30.10;18.27;;;13.10;99.90;;;;;;4972015;28;20042;-71
2023/05/11 10:03:52;;;;;;;35.72;20.30;;;13.20;99.90;;;;;;4939992;28;20059;-70
2023/05/11 10:06:18;;;;;;;33.08;19.80;;;13.40;99.90;;;;;;4970210;28;20081;-70
2023/05/11 10:08:44;;;;;;;37.20;20.95;;;13.40;99.90;;;;;;4972030;28;20058;-71
2023/05/11 10:11:10;;;;;;;31.63;19.65;;;13.50;99.90;;;;;;4971037;28;20497;-70
2023/05/11 10:13:37;;;;;;;32.88;19.80;;;13.50;99.90;;;;;;4939451;28;20045;-70
2023/05/11 10:16:04;;;;;;;34.97;19.45;;;13.50;99.90;;;;;;4971386;28;20777;-71
2023/05/11 10:18:35;;;;;;;31.77;19.15;;;13.60;99.90;;;;;;4955017;28;20061;-70
2023/05/11 10:21:01;;;;;;;37.03;21.08;;;13.70;99.90;;;;;;4969920;28;20137;-71
2023/05/11 10:23:27;;;;;;;36.90;21.75;;;13.80;99.90;;;;;;4970115;28;20078;-70
2023/05/11 10:25:53;;;;;;;37.00;21.00;;;13.90;99.90;;;;;;4970540;28;20068;-71
2023/05/11 10:28:21;;;;;;;32.15;19.52;;;13.90;99.90;;;;;;4969547;28;20050;-71
2023/05/11 10:30:47;;;;;;;31.13;20.30;;;13.80;99.90;;;;;;4953858;28;20161;-70
2023/05/11 10:33:13;;;;;;;32.83;19.92;;;13.80;99.90;;;;;;4949725;28;20104;-71
2023/05/11 10:35:39;;;;;;;37.63;20.02;;;13.90;99.90;;;;;;4953281;28;20100;-71
2023/05/11 10:38:06;;;;;;;33.67;20.17;;;13.80;99.90;;;;;;4985457;28;20054;-70
2023/05/11 10:40:37;;;;;;;33.85;19.88;;;13.80;99.90;;;;;;4968798;28;20812;-70
2023/05/11 10:43:31;;;;;;;29.65;18.13;;;13.90;99.90;;;;;;4967903;28;20039;-70
2023/05/11 10:46:12;;;;;;;32.38;19.30;;;13.90;99.90;;;;;;4968957;28;20097;-71
2023/05/11 10:48:44;;;;;;;29.30;18.92;;;14.00;99.90;;;;;;4973682;28;20077;-70
2023/05/11 10:51:28;;;;;;;27.67;17.55;;;14.10;99.90;;;;;;4956467;28;20069;-70
2023/05/11 10:54:37;;;;;;;23.48;17.88;;;14.00;99.90;;;;;;4989187;28;20053;-70
2023/05/11 10:57:12;;;;;;;27.15;19.10;;;14.10;99.90;;;;;;4989611;28;20038;-71
2023/05/11 10:59:57;;;;;;;25.75;17.77;;;14.20;99.90;;;;;;4969319;28;20078;-71
2023/05/11 11:02:30;;;;;;;26.73;18.08;;;14.30;99.90;;;;;;4953517;28;20074;-70
2023/05/11 11:04:57;;;;;;;28.60;18.33;;;14.40;99.90;;;;;;4971936;28;20109;-70
2023/05/11 11:07:23;;;;;;;25.48;18.58;;;14.40;99.90;;;;;;4970687;28;20164;-70
2023/05/11 11:10:05;;;;;;;27.13;17.02;;;14.40;99.90;;;;;;4954016;28;20046;-70
2023/05/11 11:12:33;;;;;;;24.30;17.10;;;14.40;99.90;;;;;;4988663;28;20062;-70
2023/05/11 11:15:06;;;;;;;23.15;15.80;;;14.50;99.90;;;;;;4954815;28;20078;-71
2023/05/11 11:17:34;;;;;;;15.70;11.95;;;14.50;99.90;;;;;;4970998;28;20046;-70
2023/05/11 11:20:03;;;;;;;15.23;11.80;;;14.60;99.90;;;;;;4968650;28;20054;-70
2023/05/11 11:22:37;;;;;;;15.63;12.05;;;14.60;99.90;;;;;;4982665;28;20065;-71
2023/05/11 11:25:08;;;;;;;17.00;12.75;;;14.70;99.90;;;;;;4969070;28;20062;-70
2023/05/11 11:27:40;;;;;;;15.18;10.75;;;14.60;99.90;;;;;;4966323;28;20038;-70
2023/05/11 11:30:20;;;;;;;14.25;10.02;;;14.80;99.90;;;;;;4954827;28;20568;-70
2023/05/11 11:32:47;;;;;;;12.30;9.45;;;14.80;99.90;;;;;;4962512;28;20060;-70
2023/05/11 11:35:38;;;;;;;11.50;9.15;;;14.90;99.90;;;;;;4980734;28;20054;-70
2023/05/11 11:38:05;;;;;;;15.98;9.77;;;14.90;99.90;;;;;;4964204;28;20053;-70
2023/05/11 11:40:40;;;;;;;11.50;9.13;;;15.00;99.90;;;;;;4971305;28;20050;-70
2023/05/11 11:43:19;;;;;;;13.98;8.85;;;15.00;99.90;;;;;;4981405;28;20049;-70
2023/05/11 11:45:58;;;;;;;12.70;8.60;;;15.20;99.90;;;;;;4982241;28;20042;-71
2023/05/11 11:48:37;;;;;;;12.48;9.30;;;15.20;99.90;;;;;;4965957;28;20524;-71
2023/05/11 11:51:04;;;;;;;10.80;8.85;;;15.30;99.90;;;;;;4973697;28;20064;-71
2023/05/11 11:53:36;;;;;;;12.25;8.30;;;15.40;99.90;;;;;;4991855;28;20128;-71
2023/05/11 11:56:06;;;;;;;;;;;15.50;99.90;;;;;;4984522;28;20058;-71
2023/05/11 11:58:41;;;;;;;13.63;8.63;;;15.70;99.90;;;;;;5001890;28;19973;-70
2023/05/11 12:01:07;;;;;;;12.05;8.90;;;15.80;99.90;;;;;;4965239;28;20050;-70
2023/05/11 12:03:36;;;;;;;11.52;8.77;;;15.90;99.90;;;;;;5005265;28;20077;-70
2023/05/11 12:06:05;;;;;;;10.18;8.27;;;15.90;99.90;;;;;;4983919;28;20051;-71
2023/05/11 12:08:31;;;;;;;10.70;8.15;;;15.90;99.90;;;;;;4961704;28;20053;-71
2023/05/11 12:10:57;;;;;;;12.00;9.05;;;15.90;99.90;;;;;;4980562;28;20050;-71
2023/05/11 12:13:24;;;;;;;11.07;8.32;;;15.90;99.90;;;;;;5009445;28;20050;-71
2023/05/11 12:16:06;;;;;;;11.30;7.80;;;15.80;99.90;;;;;;4947642;28;20085;-71
2023/05/11 12:18:31;;;;;;;9.68;7.47;;;15.80;99.90;;;;;;4981301;28;20065;-70
2023/05/11 12:20:57;;;;;;;8.75;7.43;;;15.80;99.90;;;;;;4928771;28;20054;-71
2023/05/11 12:23:22;;;;;;;11.40;7.25;;;15.90;99.90;;;;;;4964905;28;20049;-71
2023/05/11 12:26:03;;;;;;;11.52;7.65;;;15.90;99.90;;;;;;4942945;28;20078;-70
2023/05/11 12:28:29;;;;;;;11.40;8.07;;;16.00;99.90;;;;;;4980015;28;20042;-70
2023/05/11 12:30:56;;;;;;;8.95;7.03;;;16.00;99.90;;;;;;4964772;28;20046;-71
2023/05/11 12:33:22;;;;;;;9.43;7.03;;;16.00;99.90;;;;;;4963795;28;20050;-70
2023/05/11 12:35:52;;;;;;;7.85;6.03;;;16.00;99.90;;;;;;5007299;28;20038;-71
2023/05/11 12:38:17;;;;;;;11.73;5.95;;;15.90;99.90;;;;;;4957498;28;20046;-70
2023/05/11 12:40:48;;;;;;;8.85;5.97;;;15.80;99.90;;;;;;4980343;28;20054;-71
2023/05/11 12:43:21;;;;;;;6.83;5.47;;;15.80;99.90;;;;;;5006715;28;20081;-70
2023/05/11 12:45:47;;;;;;;6.22;4.70;;;15.80;99.90;;;;;;4991403;28;20506;-71
2023/05/11 12:48:14;;;;;;;6.63;5.35;;;15.70;99.90;;;;;;5000117;28;20074;-71
2023/05/11 12:50:41;;;;;;;6.60;5.32;;;15.60;99.90;;;;;;4971468;28;20085;-70
2023/05/11 12:53:18;;;;;;;7.45;4.72;;;15.60;99.90;;;;;;4963916;28;20057;-71
2023/05/11 12:55:45;;;;;;;6.57;4.20;;;15.60;99.90;;;;;;4963549;28;20085;-70
2023/05/11 12:58:13;;;;;;;5.20;4.10;;;15.60;99.90;;;;;;5000449;28;20128;-71
2023/05/11 13:00:54;;;;;;;5.13;4.60;;;15.60;99.90;;;;;;4979765;28;20054;-71
2023/05/11 13:03:24;;;;;;;6.18;4.25;;;15.60;99.90;;;;;;5003719;28;20646;-71
2023/05/11 13:05:51;;;;;;;6.20;4.20;;;15.50;99.90;;;;;;4964934;28;20062;-70
2023/05/11 13:08:18;;;;;;;5.22;4.20;;;15.50;99.90;;;;;;4962160;28;20052;-71
2023/05/11 13:10:46;;;;;;;4.82;3.28;;;15.50;99.90;;;;;;4978996;28;20046;-71
2023/05/11 13:13:27;;;;;;;6.93;2.90;;;15.50;99.90;;;;;;4982842;28;20041;-71
2023/05/11 13:15:53;;;;;;;2.50;2.28;;;15.50;99.90;;;;;;4985494;28;20054;-71
2023/05/11 13:18:19;;;;;;;4.20;2.47;;;15.50;99.90;;;;;;4979947;28;20457;-71
2023/05/11 13:20:45;;;;;;;3.60;2.65;;;15.60;99.90;;;;;;4962567;28;20133;-71
2023/05/11 13:23:13;;;;;;;4.13;2.97;;;15.60;99.90;;;;;;4979512;28;20046;-71
2023/05/11 13:25:47;;;;;;;4.20;3.70;;;15.60;99.90;;;;;;4979256;28;20048;-70
2023/05/11 13:28:14;;;;;;;4.78;3.65;;;15.60;99.90;;;;;;4979915;28;20106;-71
2023/05/11 13:30:40;;;;;;;6.63;3.60;;;15.60;99.90;;;;;;4984144;28;20128;-70
2023/05/11 13:33:06;;;;;;;4.13;3.10;;;15.50;99.90;;;;;;4978656;28;20046;-71
2023/05/11 13:35:31;;;;;;;4.43;3.35;;;15.50;99.90;;;;;;4963848;28;20042;-71
2023/05/11 13:37:57;;;;;;;6.05;3.42;;;15.50;99.90;;;;;;4981987;28;20034;-71